sensor_id;sensor_type;location;lat;lon;timestamp;temperature;humidity
22908;DHT22;11620;50.050;8.690;2023-07-20T00:01:01;20.30;99.90
22908;DHT22;11620;50.050;8.690;2023-07-20T00:03:47;20.30;99.90
22908;DHT22;11620;50.050;8.690;2023-07-20T00:06:41;20.30;99.90
22908;DHT22;11620;50.050;8.690;2023-07-20T00:09:27;20.30;99.90
22908;DHT22;11620;50.050;8.690;2023-07-20T00:12:14;20.30;99.90
22908;DHT22;11620;50.050;8.690;2023-07-20T00:15:00;20.30;99.90
22908;DHT22;11620;50.050;8.690;2023-07-20T00:17:46;20.20;99.90
22908;DHT22;11620;50.050;8.690;2023-07-20T00:20:33;20.20;99.90
22908;DHT22;11620;50.050;8.690;2023-07-20T00:23:19;20.20;99.90
22908;DHT22;11620;50.050;8.690;2023-07-20T00:26:08;20.20;99.90
22908;DHT22;11620;50.050;8.690;2023-07-20T00:28:55;20.20;99.90
22908;DHT22;11620;50.050;8.690;2023-07-20T00:31:41;20.10;99.90
22908;DHT22;11620;50.050;8.690;2023-07-20T00:34:29;20.10;99.90
22908;DHT22;11620;50.050;8.690;2023-07-20T00:37:15;20.10;99.90
22908;DHT22;11620;50.050;8.690;2023-07-20T00:40:02;20.10;99.90
22908;DHT22;11620;50.050;8.690;2023-07-20T00:42:51;20.00;99.90
22908;DHT22;11620;50.050;8.690;2023-07-20T00:45:38;20.00;99.90
22908;DHT22;11620;50.050;8.690;2023-07-20T00:48:24;20.00;99.90
22908;DHT22;11620;50.050;8.690;2023-07-20T00:51:12;19.90;99.90
22908;DHT22;11620;50.050;8.690;2023-07-20T00:53:58;19.90;99.90
22908;DHT22;11620;50.050;8.690;2023-07-20T00:56:45;19.90;99.90
22908;DHT22;11620;50.050;8.690;2023-07-20T00:59:32;19.80;99.90
22908;DHT22;11620;50.050;8.690;2023-07-20T01:02:18;19.70;99.90
22908;DHT22;11620;50.050;8.690;2023-07-20T01:05:05;19.70;99.90
22908;DHT22;11620;50.050;8.690;2023-07-20T01:07:59;19.70;99.90
22908;DHT22;11620;50.050;8.690;2023-07-20T01:10:57;19.70;99.90
22908;DHT22;11620;50.050;8.690;2023-07-20T01:13:45;19.60;99.90
22908;DHT22;11620;50.050;8.690;2023-07-20T01:16:33;19.60;99.90
22908;DHT22;11620;50.050;8.690;2023-07-20T01:19:19;19.60;99.90
22908;DHT22;11620;50.050;8.690;2023-07-20T01:31:21;19.20;99.90
22908;DHT22;11620;50.050;8.690;2023-07-20T01:34:09;19.10;99.90
22908;DHT22;11620;50.050;8.690;2023-07-20T01:36:58;19.00;99.90
22908;DHT22;11620;50.050;8.690;2023-07-20T01:39:45;19.00;99.90
22908;DHT22;11620;50.050;8.690;2023-07-20T01:42:32;19.10;99.90
22908;DHT22;11620;50.050;8.690;2023-07-20T01:45:18;19.00;99.90
22908;DHT22;11620;50.050;8.690;2023-07-20T01:48:04;19.00;99.90
22908;DHT22;11620;50.050;8.690;2023-07-20T01:50:51;19.00;99.90
22908;DHT22;11620;50.050;8.690;2023-07-20T01:53:40;19.00;99.90
22908;DHT22;11620;50.050;8.690;2023-07-20T01:56:26;19.10;99.90
22908;DHT22;11620;50.050;8.690;2023-07-20T01:59:13;19.00;99.90
22908;DHT22;11620;50.050;8.690;2023-07-20T02:01:59;19.10;99.90
22908;DHT22;11620;50.050;8.690;2023-07-20T02:04:45;19.10;99.90
22908;DHT22;11620;50.050;8.690;2023-07-20T02:07:32;19.10;99.90
22908;DHT22;11620;50.050;8.690;2023-07-20T02:10:18;19.10;99.90
22908;DHT22;11620;50.050;8.690;2023-07-20T02:13:05;19.10;99.90
22908;DHT22;11620;50.050;8.690;2023-07-20T02:15:51;19.00;99.90
22908;DHT22;11620;50.050;8.690;2023-07-20T02:18:37;19.00;99.90
22908;DHT22;11620;50.050;8.690;2023-07-20T02:21:24;19.00;99.90
22908;DHT22;11620;50.050;8.690;2023-07-20T02:24:12;18.90;99.90
22908;DHT22;11620;50.050;8.690;2023-07-20T02:26:59;18.90;99.90
22908;DHT22;11620;50.050;8.690;2023-07-20T02:29:45;18.90;99.90
22908;DHT22;11620;50.050;8.690;2023-07-20T02:32:32;18.90;99.90
22908;DHT22;11620;50.050;8.690;2023-07-20T02:35:18;18.80;99.90
22908;DHT22;11620;50.050;8.690;2023-07-20T02:38:04;18.70;99.90
22908;DHT22;11620;50.050;8.690;2023-07-20T02:40:50;18.60;99.90
22908;DHT22;11620;50.050;8.690;2023-07-20T02:43:37;18.60;99.90
22908;DHT22;11620;50.050;8.690;2023-07-20T02:46:24;18.50;99.90
22908;DHT22;11620;50.050;8.690;2023-07-20T02:49:10;18.40;99.90
22908;DHT22;11620;50.050;8.690;2023-07-20T02:51:56;18.40;99.90
22908;DHT22;11620;50.050;8.690;2023-07-20T02:54:42;18.20;99.90
22908;DHT22;11620;50.050;8.690;2023-07-20T02:57:29;18.10;99.90
22908;DHT22;11620;50.050;8.690;2023-07-20T03:00:15;18.10;99.90
22908;DHT22;11620;50.050;8.690;2023-07-20T03:03:02;18.10;99.90
22908;DHT22;11620;50.050;8.690;2023-07-20T03:05:49;18.10;99.90
22908;DHT22;11620;50.050;8.690;2023-07-20T03:08:44;18.10;99.90
22908;DHT22;11620;50.050;8.690;2023-07-20T03:11:32;18.10;99.90
22908;DHT22;11620;50.050;8.690;2023-07-20T03:14:19;17.90;99.90
22908;DHT22;11620;50.050;8.690;2023-07-20T03:17:05;18.00;99.90
22908;DHT22;11620;50.050;8.690;2023-07-20T03:19:52;17.90;99.90
22908;DHT22;11620;50.050;8.690;2023-07-20T03:22:38;17.80;99.90
22908;DHT22;11620;50.050;8.690;2023-07-20T03:25:27;17.80;99.90
22908;DHT22;11620;50.050;8.690;2023-07-20T03:28:13;17.70;99.90
22908;DHT22;11620;50.050;8.690;2023-07-20T03:31:00;17.70;99.90
22908;DHT22;11620;50.050;8.690;2023-07-20T03:33:46;17.80;99.90
22908;DHT22;11620;50.050;8.690;2023-07-20T03:36:32;17.60;99.90
22908;DHT22;11620;50.050;8.690;2023-07-20T03:39:19;17.60;99.90
22908;DHT22;11620;50.050;8.690;2023-07-20T03:42:05;17.50;99.90
22908;DHT22;11620;50.050;8.690;2023-07-20T03:44:52;17.50;99.90
22908;DHT22;11620;50.050;8.690;2023-07-20T03:47:38;17.50;99.90
22908;DHT22;11620;50.050;8.690;2023-07-20T03:50:25;17.50;99.90
22908;DHT22;11620;50.050;8.690;2023-07-20T03:53:12;17.50;99.90
22908;DHT22;11620;50.050;8.690;2023-07-20T03:55:58;17.50;99.90
22908;DHT22;11620;50.050;8.690;2023-07-20T03:58:44;17.30;99.90
22908;DHT22;11620;50.050;8.690;2023-07-20T04:01:31;16.80;99.90
22908;DHT22;11620;50.050;8.690;2023-07-20T04:04:22;16.30;99.90
22908;DHT22;11620;50.050;8.690;2023-07-20T04:07:09;16.30;99.90
22908;DHT22;11620;50.050;8.690;2023-07-20T04:09:55;16.10;99.90
22908;DHT22;11620;50.050;8.690;2023-07-20T04:12:42;16.00;99.90
22908;DHT22;11620;50.050;8.690;2023-07-20T04:15:29;16.00;99.90
22908;DHT22;11620;50.050;8.690;2023-07-20T04:18:16;15.90;99.90
22908;DHT22;11620;50.050;8.690;2023-07-20T04:21:02;15.80;99.90
22908;DHT22;11620;50.050;8.690;2023-07-20T04:23:49;15.80;99.90
22908;DHT22;11620;50.050;8.690;2023-07-20T04:26:36;15.90;99.90
22908;DHT22;11620;50.050;8.690;2023-07-20T04:29:23;16.00;99.90
22908;DHT22;11620;50.050;8.690;2023-07-20T04:32:09;15.80;99.90
22908;DHT22;11620;50.050;8.690;2023-07-20T04:34:55;15.80;99.90
22908;DHT22;11620;50.050;8.690;2023-07-20T04:37:42;16.00;99.90
22908;DHT22;11620;50.050;8.690;2023-07-20T04:40:32;15.70;99.90
22908;DHT22;11620;50.050;8.690;2023-07-20T04:43:18;15.50;99.90
22908;DHT22;11620;50.050;8.690;2023-07-20T04:46:04;15.50;99.90
22908;DHT22;11620;50.050;8.690;2023-07-20T04:48:51;15.40;99.90
22908;DHT22;11620;50.050;8.690;2023-07-20T04:51:37;15.50;99.90
22908;DHT22;11620;50.050;8.690;2023-07-20T04:54:23;15.40;99.90
22908;DHT22;11620;50.050;8.690;2023-07-20T04:57:11;15.30;99.90
22908;DHT22;11620;50.050;8.690;2023-07-20T04:59:59;15.40;99.90
22908;DHT22;11620;50.050;8.690;2023-07-20T05:02:45;15.40;99.90
22908;DHT22;11620;50.050;8.690;2023-07-20T05:05:33;15.40;99.90
22908;DHT22;11620;50.050;8.690;2023-07-20T05:08:20;15.40;99.90
22908;DHT22;11620;50.050;8.690;2023-07-20T05:11:08;15.40;99.90
22908;DHT22;11620;50.050;8.690;2023-07-20T05:13:54;15.60;99.90
22908;DHT22;11620;50.050;8.690;2023-07-20T05:16:41;15.70;99.90
22908;DHT22;11620;50.050;8.690;2023-07-20T05:19:27;15.70;99.90
22908;DHT22;11620;50.050;8.690;2023-07-20T05:22:14;15.50;99.90
22908;DHT22;11620;50.050;8.690;2023-07-20T05:25:00;15.60;99.90
22908;DHT22;11620;50.050;8.690;2023-07-20T05:27:47;15.70;99.90
22908;DHT22;11620;50.050;8.690;2023-07-20T05:30:33;15.70;99.90
22908;DHT22;11620;50.050;8.690;2023-07-20T05:33:20;15.60;99.90
22908;DHT22;11620;50.050;8.690;2023-07-20T05:36:06;15.50;99.90
22908;DHT22;11620;50.050;8.690;2023-07-20T05:38:53;15.40;99.90
22908;DHT22;11620;50.050;8.690;2023-07-20T05:41:39;15.40;99.90
22908;DHT22;11620;50.050;8.690;2023-07-20T05:44:26;15.40;99.90
22908;DHT22;11620;50.050;8.690;2023-07-20T05:47:12;15.40;99.90
22908;DHT22;11620;50.050;8.690;2023-07-20T05:49:58;15.60;99.90
22908;DHT22;11620;50.050;8.690;2023-07-20T05:52:45;15.50;99.90
22908;DHT22;11620;50.050;8.690;2023-07-20T05:55:31;15.60;99.90
22908;DHT22;11620;50.050;8.690;2023-07-20T05:58:18;15.60;99.90
22908;DHT22;11620;50.050;8.690;2023-07-20T06:01:05;15.70;99.90
22908;DHT22;11620;50.050;8.690;2023-07-20T06:03:54;15.80;99.90
22908;DHT22;11620;50.050;8.690;2023-07-20T06:06:40;16.00;99.90
22908;DHT22;11620;50.050;8.690;2023-07-20T06:09:26;16.30;99.90
22908;DHT22;11620;50.050;8.690;2023-07-20T06:12:13;16.40;99.90
22908;DHT22;11620;50.050;8.690;2023-07-20T06:15:04;16.60;99.90
22908;DHT22;11620;50.050;8.690;2023-07-20T06:17:50;16.90;99.90
22908;DHT22;11620;50.050;8.690;2023-07-20T06:20:37;17.10;99.90
22908;DHT22;11620;50.050;8.690;2023-07-20T06:23:23;17.30;99.90
22908;DHT22;11620;50.050;8.690;2023-07-20T06:26:09;17.60;99.90
22908;DHT22;11620;50.050;8.690;2023-07-20T06:28:56;17.80;99.90
22908;DHT22;11620;50.050;8.690;2023-07-20T06:31:42;17.90;99.90
22908;DHT22;11620;50.050;8.690;2023-07-20T06:34:29;18.30;99.90
22908;DHT22;11620;50.050;8.690;2023-07-20T06:37:15;18.70;99.90
22908;DHT22;11620;50.050;8.690;2023-07-20T06:40:03;19.20;99.90
22908;DHT22;11620;50.050;8.690;2023-07-20T06:42:52;19.10;99.90
22908;DHT22;11620;50.050;8.690;2023-07-20T06:45:38;19.10;99.90
22908;DHT22;11620;50.050;8.690;2023-07-20T06:48:25;19.30;99.90
22908;DHT22;11620;50.050;8.690;2023-07-20T06:51:11;19.80;99.90
22908;DHT22;11620;50.050;8.690;2023-07-20T06:53:57;19.90;99.90
22908;DHT22;11620;50.050;8.690;2023-07-20T06:56:44;20.00;99.90
22908;DHT22;11620;50.050;8.690;2023-07-20T06:59:30;20.20;99.90
22908;DHT22;11620;50.050;8.690;2023-07-20T07:02:16;20.30;99.90
22908;DHT22;11620;50.050;8.690;2023-07-20T07:05:03;20.10;99.90
22908;DHT22;11620;50.050;8.690;2023-07-20T07:07:49;20.20;99.90
22908;DHT22;11620;50.050;8.690;2023-07-20T07:10:36;20.20;99.90
22908;DHT22;11620;50.050;8.690;2023-07-20T07:13:22;20.30;99.90
22908;DHT22;11620;50.050;8.690;2023-07-20T07:16:09;20.30;99.90
22908;DHT22;11620;50.050;8.690;2023-07-20T07:18:55;20.30;99.90
22908;DHT22;11620;50.050;8.690;2023-07-20T07:21:41;20.40;99.90
22908;DHT22;11620;50.050;8.690;2023-07-20T07:24:28;20.20;99.90
22908;DHT22;11620;50.050;8.690;2023-07-20T07:27:19;20.20;99.90
22908;DHT22;11620;50.050;8.690;2023-07-20T07:30:06;20.30;99.90
22908;DHT22;11620;50.050;8.690;2023-07-20T07:32:52;20.40;99.90
22908;DHT22;11620;50.050;8.690;2023-07-20T07:35:39;20.30;99.90
22908;DHT22;11620;50.050;8.690;2023-07-20T07:38:25;20.20;99.90
22908;DHT22;11620;50.050;8.690;2023-07-20T07:41:11;20.20;99.90
22908;DHT22;11620;50.050;8.690;2023-07-20T07:43:58;20.30;99.90
22908;DHT22;11620;50.050;8.690;2023-07-20T07:46:44;20.40;99.90
22908;DHT22;11620;50.050;8.690;2023-07-20T07:49:31;20.50;99.90
22908;DHT22;11620;50.050;8.690;2023-07-20T07:52:17;20.60;99.90
22908;DHT22;11620;50.050;8.690;2023-07-20T07:55:04;20.70;99.90
22908;DHT22;11620;50.050;8.690;2023-07-20T07:57:51;20.90;99.90
22908;DHT22;11620;50.050;8.690;2023-07-20T08:00:37;20.90;99.90
22908;DHT22;11620;50.050;8.690;2023-07-20T08:03:23;20.90;99.90
22908;DHT22;11620;50.050;8.690;2023-07-20T08:06:10;21.00;99.90
22908;DHT22;11620;50.050;8.690;2023-07-20T08:08:56;21.50;99.90
22908;DHT22;11620;50.050;8.690;2023-07-20T08:11:43;21.60;99.90
22908;DHT22;11620;50.050;8.690;2023-07-20T08:14:29;21.50;99.90
22908;DHT22;11620;50.050;8.690;2023-07-20T08:17:15;21.40;99.90
22908;DHT22;11620;50.050;8.690;2023-07-20T08:20:02;21.40;99.90
22908;DHT22;11620;50.050;8.690;2023-07-20T08:22:48;21.80;99.90
22908;DHT22;11620;50.050;8.690;2023-07-20T08:25:36;22.40;99.90
22908;DHT22;11620;50.050;8.690;2023-07-20T08:28:23;23.00;99.90
22908;DHT22;11620;50.050;8.690;2023-07-20T08:31:09;22.80;99.90
22908;DHT22;11620;50.050;8.690;2023-07-20T08:33:56;23.00;99.90
22908;DHT22;11620;50.050;8.690;2023-07-20T08:36:42;23.20;99.90
22908;DHT22;11620;50.050;8.690;2023-07-20T08:39:29;23.60;99.90
22908;DHT22;11620;50.050;8.690;2023-07-20T08:42:16;23.80;99.90
22908;DHT22;11620;50.050;8.690;2023-07-20T08:45:06;23.50;99.90
22908;DHT22;11620;50.050;8.690;2023-07-20T08:47:56;23.00;99.90
22908;DHT22;11620;50.050;8.690;2023-07-20T08:50:44;22.70;99.90
22908;DHT22;11620;50.050;8.690;2023-07-20T08:53:32;22.60;99.90
22908;DHT22;11620;50.050;8.690;2023-07-20T08:56:20;23.10;99.90
22908;DHT22;11620;50.050;8.690;2023-07-20T08:59:12;23.70;99.90
22908;DHT22;11620;50.050;8.690;2023-07-20T09:02:00;24.20;99.90
22908;DHT22;11620;50.050;8.690;2023-07-20T09:04:46;24.60;99.90
22908;DHT22;11620;50.050;8.690;2023-07-20T09:07:33;23.90;99.90
22908;DHT22;11620;50.050;8.690;2023-07-20T09:10:24;23.70;99.90
22908;DHT22;11620;50.050;8.690;2023-07-20T09:13:14;23.50;99.90
22908;DHT22;11620;50.050;8.690;2023-07-20T09:16:01;23.10;99.90
22908;DHT22;11620;50.050;8.690;2023-07-20T09:18:49;23.00;99.90
22908;DHT22;11620;50.050;8.690;2023-07-20T09:21:36;23.50;99.90
22908;DHT22;11620;50.050;8.690;2023-07-20T09:24:23;23.70;99.90
22908;DHT22;11620;50.050;8.690;2023-07-20T09:27:10;23.90;99.90
22908;DHT22;11620;50.050;8.690;2023-07-20T09:29:57;24.10;99.90
22908;DHT22;11620;50.050;8.690;2023-07-20T09:32:47;24.10;99.90
22908;DHT22;11620;50.050;8.690;2023-07-20T09:35:33;23.70;99.90
22908;DHT22;11620;50.050;8.690;2023-07-20T09:38:20;23.70;99.90
22908;DHT22;11620;50.050;8.690;2023-07-20T09:41:06;23.90;99.90
22908;DHT22;11620;50.050;8.690;2023-07-20T09:43:53;23.50;99.90
22908;DHT22;11620;50.050;8.690;2023-07-20T09:46:45;23.50;99.90
22908;DHT22;11620;50.050;8.690;2023-07-20T09:49:32;23.70;99.90
22908;DHT22;11620;50.050;8.690;2023-07-20T09:52:18;23.50;99.90
22908;DHT22;11620;50.050;8.690;2023-07-20T09:55:10;23.10;99.90
22908;DHT22;11620;50.050;8.690;2023-07-20T09:57:58;22.80;99.90
22908;DHT22;11620;50.050;8.690;2023-07-20T10:00:46;22.40;99.90
22908;DHT22;11620;50.050;8.690;2023-07-20T10:03:37;22.60;99.90
22908;DHT22;11620;50.050;8.690;2023-07-20T10:06:24;22.70;99.90
22908;DHT22;11620;50.050;8.690;2023-07-20T10:09:15;23.00;99.90
22908;DHT22;11620;50.050;8.690;2023-07-20T10:12:01;23.40;99.90
22908;DHT22;11620;50.050;8.690;2023-07-20T10:14:54;24.30;99.90
22908;DHT22;11620;50.050;8.690;2023-07-20T10:20:50;24.90;99.90
22908;DHT22;11620;50.050;8.690;2023-07-20T10:23:38;24.60;99.90
22908;DHT22;11620;50.050;8.690;2023-07-20T10:26:26;24.40;99.90
22908;DHT22;11620;50.050;8.690;2023-07-20T10:29:12;24.20;99.90
22908;DHT22;11620;50.050;8.690;2023-07-20T10:32:00;24.10;99.90
22908;DHT22;11620;50.050;8.690;2023-07-20T10:34:53;24.30;99.90
22908;DHT22;11620;50.050;8.690;2023-07-20T10:37:54;24.50;99.90
22908;DHT22;11620;50.050;8.690;2023-07-20T10:40:41;24.70;99.90
22908;DHT22;11620;50.050;8.690;2023-07-20T10:43:27;24.70;99.90
22908;DHT22;11620;50.050;8.690;2023-07-20T10:46:14;25.40;99.90
22908;DHT22;11620;50.050;8.690;2023-07-20T10:49:02;25.70;99.90
22908;DHT22;11620;50.050;8.690;2023-07-20T10:51:49;25.80;99.90
22908;DHT22;11620;50.050;8.690;2023-07-20T10:54:48;25.50;99.90
22908;DHT22;11620;50.050;8.690;2023-07-20T10:57:35;25.30;99.90
22908;DHT22;11620;50.050;8.690;2023-07-20T11:00:24;25.50;99.90
22908;DHT22;11620;50.050;8.690;2023-07-20T11:09:12;24.60;99.90
22908;DHT22;11620;50.050;8.690;2023-07-20T11:12:13;24.60;99.90
22908;DHT22;11620;50.050;8.690;2023-07-20T11:15:03;24.60;99.90
22908;DHT22;11620;50.050;8.690;2023-07-20T11:17:49;24.50;99.90
22908;DHT22;11620;50.050;8.690;2023-07-20T11:20:36;24.40;99.90
22908;DHT22;11620;50.050;8.690;2023-07-20T11:23:23;24.30;99.90
22908;DHT22;11620;50.050;8.690;2023-07-20T11:26:09;24.10;99.90
22908;DHT22;11620;50.050;8.690;2023-07-20T11:28:56;23.80;99.90
22908;DHT22;11620;50.050;8.690;2023-07-20T11:31:43;23.70;99.90
22908;DHT22;11620;50.050;8.690;2023-07-20T11:34:31;23.60;99.90
22908;DHT22;11620;50.050;8.690;2023-07-20T11:37:18;23.80;99.90
22908;DHT22;11620;50.050;8.690;2023-07-20T11:40:09;23.90;99.90
22908;DHT22;11620;50.050;8.690;2023-07-20T11:42:56;23.90;99.90
22908;DHT22;11620;50.050;8.690;2023-07-20T11:45:42;24.20;99.90
22908;DHT22;11620;50.050;8.690;2023-07-20T11:48:29;24.50;99.90
22908;DHT22;11620;50.050;8.690;2023-07-20T11:51:16;24.50;99.90
22908;DHT22;11620;50.050;8.690;2023-07-20T11:54:04;24.70;99.90
22908;DHT22;11620;50.050;8.690;2023-07-20T11:56:54;24.20;99.90
22908;DHT22;11620;50.050;8.690;2023-07-20T11:59:57;24.50;99.90
22908;DHT22;11620;50.050;8.690;2023-07-20T12:02:45;24.60;99.90
22908;DHT22;11620;50.050;8.690;2023-07-20T12:05:31;24.50;99.90
22908;DHT22;11620;50.050;8.690;2023-07-20T12:08:18;24.70;99.90
22908;DHT22;11620;50.050;8.690;2023-07-20T12:11:04;24.60;99.90
22908;DHT22;11620;50.050;8.690;2023-07-20T12:13:50;24.90;99.90
22908;DHT22;11620;50.050;8.690;2023-07-20T12:16:37;24.80;99.90
22908;DHT22;11620;50.050;8.690;2023-07-20T12:19:25;25.30;99.90
22908;DHT22;11620;50.050;8.690;2023-07-20T12:22:11;25.90;99.90
22908;DHT22;11620;50.050;8.690;2023-07-20T12:24:58;25.90;99.90
22908;DHT22;11620;50.050;8.690;2023-07-20T12:27:44;25.60;99.90
22908;DHT22;11620;50.050;8.690;2023-07-20T12:30:31;25.30;99.90
22908;DHT22;11620;50.050;8.690;2023-07-20T12:33:17;25.40;99.90
22908;DHT22;11620;50.050;8.690;2023-07-20T12:36:04;25.40;99.90
22908;DHT22;11620;50.050;8.690;2023-07-20T12:38:51;25.40;99.90
22908;DHT22;11620;50.050;8.690;2023-07-20T12:41:37;25.30;99.90
22908;DHT22;11620;50.050;8.690;2023-07-20T12:44:23;25.30;99.90
22908;DHT22;11620;50.050;8.690;2023-07-20T12:47:10;25.30;99.90
22908;DHT22;11620;50.050;8.690;2023-07-20T12:49:56;25.30;99.90
22908;DHT22;11620;50.050;8.690;2023-07-20T12:52:42;25.20;99.90
22908;DHT22;11620;50.050;8.690;2023-07-20T12:55:29;25.20;99.90
22908;DHT22;11620;50.050;8.690;2023-07-20T12:58:15;25.10;99.90
22908;DHT22;11620;50.050;8.690;2023-07-20T13:01:02;25.10;99.90
22908;DHT22;11620;50.050;8.690;2023-07-20T13:03:48;25.20;99.90
22908;DHT22;11620;50.050;8.690;2023-07-20T13:06:34;25.40;99.90
22908;DHT22;11620;50.050;8.690;2023-07-20T13:09:21;25.30;99.90
22908;DHT22;11620;50.050;8.690;2023-07-20T13:12:08;25.10;99.90
22908;DHT22;11620;50.050;8.690;2023-07-20T13:14:55;25.00;99.90
22908;DHT22;11620;50.050;8.690;2023-07-20T13:17:42;24.90;99.90
22908;DHT22;11620;50.050;8.690;2023-07-20T13:20:28;24.90;99.90
22908;DHT22;11620;50.050;8.690;2023-07-20T13:23:15;25.00;99.90
22908;DHT22;11620;50.050;8.690;2023-07-20T13:26:01;25.10;99.90
22908;DHT22;11620;50.050;8.690;2023-07-20T13:28:48;25.20;99.90
22908;DHT22;11620;50.050;8.690;2023-07-20T13:31:34;25.00;99.90
22908;DHT22;11620;50.050;8.690;2023-07-20T13:34:20;25.50;99.90
22908;DHT22;11620;50.050;8.690;2023-07-20T13:37:08;25.90;99.00
22908;DHT22;11620;50.050;8.690;2023-07-20T13:39:54;26.40;99.90
22908;DHT22;11620;50.050;8.690;2023-07-20T13:42:43;26.90;98.10
22908;DHT22;11620;50.050;8.690;2023-07-20T13:45:36;27.20;97.90
22908;DHT22;11620;50.050;8.690;2023-07-20T13:48:22;27.40;96.70
22908;DHT22;11620;50.050;8.690;2023-07-20T13:51:09;27.50;95.20
22908;DHT22;11620;50.050;8.690;2023-07-20T13:53:56;27.70;95.10
22908;DHT22;11620;50.050;8.690;2023-07-20T13:56:43;27.50;95.10
22908;DHT22;11620;50.050;8.690;2023-07-20T13:59:31;27.70;95.50
22908;DHT22;11620;50.050;8.690;2023-07-20T14:02:17;27.70;95.00
22908;DHT22;11620;50.050;8.690;2023-07-20T14:05:04;27.20;93.20
22908;DHT22;11620;50.050;8.690;2023-07-20T14:07:51;26.50;93.50
22908;DHT22;11620;50.050;8.690;2023-07-20T14:10:37;26.60;93.90
22908;DHT22;11620;50.050;8.690;2023-07-20T14:13:24;26.30;94.30
22908;DHT22;11620;50.050;8.690;2023-07-20T14:16:10;26.50;94.50
22908;DHT22;11620;50.050;8.690;2023-07-20T14:18:56;26.80;93.70
22908;DHT22;11620;50.050;8.690;2023-07-20T14:21:43;26.20;93.40
22908;DHT22;11620;50.050;8.690;2023-07-20T14:24:30;26.30;94.30
22908;DHT22;11620;50.050;8.690;2023-07-20T14:27:17;26.30;94.50
22908;DHT22;11620;50.050;8.690;2023-07-20T14:30:03;26.30;95.60
22908;DHT22;11620;50.050;8.690;2023-07-20T14:32:50;26.20;94.60
22908;DHT22;11620;50.050;8.690;2023-07-20T14:35:36;26.10;94.50
22908;DHT22;11620;50.050;8.690;2023-07-20T14:38:23;26.00;94.80
22908;DHT22;11620;50.050;8.690;2023-07-20T14:41:09;26.20;94.60
22908;DHT22;11620;50.050;8.690;2023-07-20T14:43:56;26.50;94.20
22908;DHT22;11620;50.050;8.690;2023-07-20T14:46:42;26.80;93.40
22908;DHT22;11620;50.050;8.690;2023-07-20T14:49:28;27.00;94.50
22908;DHT22;11620;50.050;8.690;2023-07-20T14:52:15;27.00;93.60
22908;DHT22;11620;50.050;8.690;2023-07-20T14:55:01;27.10;93.70
22908;DHT22;11620;50.050;8.690;2023-07-20T14:57:48;27.00;93.30
22908;DHT22;11620;50.050;8.690;2023-07-20T15:00:34;26.80;92.90
22908;DHT22;11620;50.050;8.690;2023-07-20T15:03:21;26.80;93.00
22908;DHT22;11620;50.050;8.690;2023-07-20T15:06:10;26.60;93.30
22908;DHT22;11620;50.050;8.690;2023-07-20T15:08:57;26.40;93.30
22908;DHT22;11620;50.050;8.690;2023-07-20T15:11:43;26.30;93.70
22908;DHT22;11620;50.050;8.690;2023-07-20T15:14:30;26.20;93.30
22908;DHT22;11620;50.050;8.690;2023-07-20T15:17:16;26.20;93.80
22908;DHT22;11620;50.050;8.690;2023-07-20T15:20:04;26.10;93.80
22908;DHT22;11620;50.050;8.690;2023-07-20T15:22:50;26.00;93.20
22908;DHT22;11620;50.050;8.690;2023-07-20T15:25:37;25.90;94.00
22908;DHT22;11620;50.050;8.690;2023-07-20T15:28:23;25.80;93.80
22908;DHT22;11620;50.050;8.690;2023-07-20T15:31:09;25.80;93.90
22908;DHT22;11620;50.050;8.690;2023-07-20T15:33:56;25.70;93.10
22908;DHT22;11620;50.050;8.690;2023-07-20T15:36:42;25.60;93.20
22908;DHT22;11620;50.050;8.690;2023-07-20T15:39:29;25.60;93.90
22908;DHT22;11620;50.050;8.690;2023-07-20T15:42:15;25.60;93.60
22908;DHT22;11620;50.050;8.690;2023-07-20T15:45:01;25.50;93.80
22908;DHT22;11620;50.050;8.690;2023-07-20T15:47:48;25.60;97.20
22908;DHT22;11620;50.050;8.690;2023-07-20T15:50:34;25.50;94.60
22908;DHT22;11620;50.050;8.690;2023-07-20T15:53:21;25.40;95.40
22908;DHT22;11620;50.050;8.690;2023-07-20T15:56:07;25.40;94.60
22908;DHT22;11620;50.050;8.690;2023-07-20T15:58:53;25.30;94.30
22908;DHT22;11620;50.050;8.690;2023-07-20T16:01:40;25.30;94.10
22908;DHT22;11620;50.050;8.690;2023-07-20T16:04:28;25.30;94.40
22908;DHT22;11620;50.050;8.690;2023-07-20T16:07:15;25.20;95.10
22908;DHT22;11620;50.050;8.690;2023-07-20T16:10:01;25.20;94.40
22908;DHT22;11620;50.050;8.690;2023-07-20T16:12:48;25.40;94.30
22908;DHT22;11620;50.050;8.690;2023-07-20T16:15:35;25.40;94.80
22908;DHT22;11620;50.050;8.690;2023-07-20T16:18:21;25.50;94.90
22908;DHT22;11620;50.050;8.690;2023-07-20T16:21:08;25.50;94.00
22908;DHT22;11620;50.050;8.690;2023-07-20T16:23:54;25.60;94.10
22908;DHT22;11620;50.050;8.690;2023-07-20T16:26:41;25.60;95.00
22908;DHT22;11620;50.050;8.690;2023-07-20T16:29:30;25.60;94.80
22908;DHT22;11620;50.050;8.690;2023-07-20T16:32:17;25.40;95.20
22908;DHT22;11620;50.050;8.690;2023-07-20T16:35:03;25.30;95.20
22908;DHT22;11620;50.050;8.690;2023-07-20T16:37:50;25.30;95.40
22908;DHT22;11620;50.050;8.690;2023-07-20T16:40:37;25.20;95.20
22908;DHT22;11620;50.050;8.690;2023-07-20T16:43:23;25.20;94.40
22908;DHT22;11620;50.050;8.690;2023-07-20T16:46:10;25.10;93.60
22908;DHT22;11620;50.050;8.690;2023-07-20T16:48:56;25.10;94.20
22908;DHT22;11620;50.050;8.690;2023-07-20T16:51:43;25.10;94.20
22908;DHT22;11620;50.050;8.690;2023-07-20T16:54:29;25.00;94.40
22908;DHT22;11620;50.050;8.690;2023-07-20T16:57:15;24.90;95.20
22908;DHT22;11620;50.050;8.690;2023-07-20T17:00:02;24.80;94.40
22908;DHT22;11620;50.050;8.690;2023-07-20T17:02:52;24.80;94.50
22908;DHT22;11620;50.050;8.690;2023-07-20T17:05:39;24.80;94.40
22908;DHT22;11620;50.050;8.690;2023-07-20T17:08:25;24.70;94.40
22908;DHT22;11620;50.050;8.690;2023-07-20T17:11:12;24.70;94.00
22908;DHT22;11620;50.050;8.690;2023-07-20T17:13:58;24.70;94.90
22908;DHT22;11620;50.050;8.690;2023-07-20T17:16:44;24.60;97.40
22908;DHT22;11620;50.050;8.690;2023-07-20T17:19:32;24.50;96.30
22908;DHT22;11620;50.050;8.690;2023-07-20T17:22:18;24.60;97.00
22908;DHT22;11620;50.050;8.690;2023-07-20T17:25:05;24.50;97.40
22908;DHT22;11620;50.050;8.690;2023-07-20T17:27:52;24.40;96.10
22908;DHT22;11620;50.050;8.690;2023-07-20T17:30:38;24.30;96.30
22908;DHT22;11620;50.050;8.690;2023-07-20T17:33:24;24.10;97.30
22908;DHT22;11620;50.050;8.690;2023-07-20T17:36:11;24.00;98.20
22908;DHT22;11620;50.050;8.690;2023-07-20T17:38:57;23.90;98.90
22908;DHT22;11620;50.050;8.690;2023-07-20T17:41:44;23.80;99.50
22908;DHT22;11620;50.050;8.690;2023-07-20T17:44:31;23.80;98.40
22908;DHT22;11620;50.050;8.690;2023-07-20T17:47:18;23.60;99.10
22908;DHT22;11620;50.050;8.690;2023-07-20T17:50:06;23.60;99.20
22908;DHT22;11620;50.050;8.690;2023-07-20T17:52:52;23.50;98.80